createdAt,value
2023-05-06T00:02:04.299Z,-18654.00
2023-05-06T00:07:05.459Z,-18648.00
2023-05-06T00:12:06.297Z,-18636.00
2023-05-06T00:17:07.345Z,-18629.00
2023-05-06T00:22:08.068Z,-18631.00
2023-05-06T00:27:09.037Z,-18631.00
2023-05-06T00:32:10.265Z,-18629.00
2023-05-06T00:37:11.194Z,-18624.00
2023-05-06T00:42:12.023Z,-18619.00
2023-05-06T00:47:13.299Z,-18607.00
2023-05-06T00:52:14.992Z,-18601.00
2023-05-06T00:57:16.051Z,-18600.00
2023-05-06T01:02:16.854Z,-18603.00
2023-05-06T01:07:44.115Z,-18599.00
2023-05-06T01:13:04.826Z,-18600.00
2023-05-06T01:18:10.150Z,-18597.00
2023-05-06T01:23:14.023Z,-18600.00
2023-05-06T01:28:14.979Z,-18600.00
2023-05-06T01:33:41.579Z,-18595.00
2023-05-06T01:45:33.594Z,-18596.00
2023-05-06T01:50:35.953Z,-18585.00
2023-05-06T01:55:36.765Z,-18584.00
2023-05-06T02:00:38.341Z,-18581.00
2023-05-06T02:05:39.296Z,-18580.00
2023-05-06T02:10:40.777Z,-18579.00
2023-05-06T02:15:43.321Z,-18580.00
2023-05-06T02:20:49.590Z,-18580.00
2023-05-06T02:25:51.001Z,-18582.00
2023-05-06T02:30:58.033Z,-18581.00
2023-05-06T02:35:58.819Z,-18581.00
2023-05-06T02:40:59.644Z,-18582.00
2023-05-06T02:46:00.416Z,-18583.00
2023-05-06T02:51:01.377Z,-18580.00
2023-05-06T02:56:02.240Z,-18578.00
2023-05-06T03:01:03.538Z,-18575.00
2023-05-06T03:06:05.216Z,-18574.00
2023-05-06T03:11:07.939Z,-18567.00
2023-05-06T03:16:15.668Z,-18569.00
2023-05-06T03:21:18.319Z,-18569.00
2023-05-06T03:26:20.622Z,-18570.00
2023-05-06T03:31:22.150Z,-18572.00
2023-05-06T03:36:27.170Z,-18570.00
2023-05-06T03:41:28.776Z,-18568.00
2023-05-06T03:46:29.883Z,-18566.00
2023-05-06T03:51:31.035Z,-18564.00
2023-05-06T03:56:31.997Z,-18562.00
2023-05-06T04:01:33.355Z,-18566.00
2023-05-06T04:06:34.504Z,-18556.00
2023-05-06T04:11:35.539Z,-18550.00
2023-05-06T04:16:37.333Z,-18557.00
2023-05-06T04:21:38.934Z,-18553.00
2023-05-06T04:26:42.636Z,-18557.00
2023-05-06T04:31:43.668Z,-18563.00
2023-05-06T04:36:48.725Z,-18573.00
2023-05-06T04:43:41.822Z,-18582.00
2023-05-06T04:48:47.747Z,-18597.00
2023-05-06T04:53:49.239Z,-18599.00
2023-05-06T04:58:50.200Z,-18604.00
2023-05-06T05:03:51.696Z,-18601.00
2023-05-06T05:08:55.390Z,-18601.00
2023-05-06T05:13:58.376Z,-18606.00
2023-05-06T05:19:03.308Z,-18613.00
2023-05-06T05:24:05.659Z,-18620.00
2023-05-06T05:29:07.579Z,-18631.00
2023-05-06T05:34:09.532Z,-18640.00
2023-05-06T05:39:10.998Z,-18636.00
2023-05-06T05:44:16.902Z,-18636.00
2023-05-06T05:49:18.533Z,-18640.00
2023-05-06T05:54:19.787Z,-18643.00
2023-05-06T05:59:20.796Z,-18654.00
2023-05-06T06:04:22.093Z,-18677.00
2023-05-06T06:09:23.255Z,-18700.00
2023-05-06T06:14:25.176Z,-18712.00
2023-05-06T06:19:26.026Z,-18723.00
2023-05-06T06:24:27.362Z,-18723.00
2023-05-06T06:29:28.225Z,-18727.00
2023-05-06T06:34:29.147Z,-18725.00
2023-05-06T06:39:30.633Z,-18722.00
2023-05-06T06:44:32.810Z,-18727.00
2023-05-06T06:49:33.593Z,-18727.00
2023-05-06T06:54:37.024Z,-18741.00
2023-05-06T06:59:37.781Z,-18749.00
2023-05-06T07:04:38.756Z,-18751.00
2023-05-06T07:09:40.272Z,-18753.00
2023-05-06T07:14:41.276Z,-18747.00
2023-05-06T07:19:42.028Z,-18754.00
2023-05-06T07:24:43.057Z,-18765.00
2023-05-06T07:29:43.785Z,-18772.00
2023-05-06T07:34:44.690Z,-18769.00
2023-05-06T07:39:45.787Z,-18782.00
2023-05-06T07:44:48.853Z,-18789.00
2023-05-06T07:49:49.651Z,-18793.00
2023-05-06T07:54:50.531Z,-18790.00
2023-05-06T07:59:52.019Z,-18794.00
2023-05-06T08:04:52.908Z,-18799.00
2023-05-06T08:09:56.531Z,-18799.00
2023-05-06T08:14:57.956Z,-18795.00
2023-05-06T08:19:58.736Z,-18805.00
2023-05-06T08:25:00.766Z,-18817.00
2023-05-06T08:30:01.606Z,-18811.00
2023-05-06T08:35:02.550Z,-18794.00
2023-05-06T08:40:04.584Z,-18796.00
2023-05-06T08:45:06.716Z,-18796.00
2023-05-06T08:50:09.316Z,-18800.00
2023-05-06T08:55:10.697Z,-18810.00
2023-05-06T09:00:12.368Z,-18813.00
2023-05-06T09:05:13.390Z,-18805.00
2023-05-06T09:10:17.122Z,-18808.00
2023-05-06T09:15:23.830Z,-18814.00
2023-05-06T09:20:35.148Z,-18832.00
2023-05-06T09:25:36.603Z,-18821.00
2023-05-06T09:30:41.678Z,-18822.00
2023-05-06T09:35:45.852Z,-18831.00
2023-05-06T09:40:46.676Z,-18830.00
2023-05-06T09:45:47.816Z,-18822.00
2023-05-06T09:50:49.715Z,-18824.00
2023-05-06T09:55:52.072Z,-18840.00
2023-05-06T10:00:54.639Z,-18857.00
2023-05-06T10:05:56.500Z,-18843.00
2023-05-06T10:11:00.884Z,-18832.00
2023-05-06T10:16:02.226Z,-18846.00
2023-05-06T10:21:06.013Z,-18867.00
2023-05-06T10:26:10.804Z,-18898.00
2023-05-06T10:31:13.211Z,-18907.00
2023-05-06T10:36:23.214Z,-18890.00
2023-05-06T10:41:27.108Z,-18846.00
2023-05-06T10:46:29.195Z,-18830.00
2023-05-06T10:51:33.621Z,-18821.00
2023-05-06T10:57:17.704Z,-18816.00
2023-05-06T11:02:19.385Z,-18822.00
2023-05-06T11:07:23.548Z,-18819.00
2023-05-06T11:12:48.213Z,-18813.00
2023-05-06T11:17:49.177Z,-18814.00
2023-05-06T11:22:50.534Z,-18809.00
2023-05-06T11:27:51.434Z,-18820.00
2023-05-06T11:32:55.111Z,-18817.00
2023-05-06T11:37:56.304Z,-18810.00
2023-05-06T11:43:13.488Z,-18832.00
2023-05-06T11:48:15.678Z,-18836.00
2023-05-06T11:53:21.279Z,-18830.00
2023-05-06T11:58:29.612Z,-18825.00
2023-05-06T12:03:31.944Z,-18816.00
2023-05-06T12:08:34.071Z,-18822.00
2023-05-06T12:13:35.892Z,-18839.00
2023-05-06T12:18:36.809Z,-18860.00
2023-05-06T12:23:50.814Z,-18868.00
2023-05-06T12:29:12.032Z,-18864.00
2023-05-06T12:34:17.629Z,-18860.00
2023-05-06T12:39:18.515Z,-18867.00
2023-05-06T12:44:32.953Z,-18859.00
2023-05-06T12:49:50.954Z,-18849.00
2023-05-06T12:54:51.975Z,-18844.00
2023-05-06T12:59:53.143Z,-18833.00
2023-05-06T13:04:53.889Z,-18822.00
2023-05-06T13:09:54.780Z,-18821.00
2023-05-06T13:14:55.534Z,-18816.00
2023-05-06T13:19:56.938Z,-18812.00
2023-05-06T13:24:58.011Z,-18814.00
2023-05-06T13:29:59.325Z,-18811.00
2023-05-06T13:35:00.220Z,-18802.00
2023-05-06T13:40:01.246Z,-18793.00
2023-05-06T13:45:02.065Z,-18784.00
2023-05-06T13:50:04.955Z,-18782.00
2023-05-06T13:55:09.187Z,-18778.00
2023-05-06T14:00:11.600Z,-18769.00
2023-05-06T14:05:12.893Z,-18767.00
2023-05-06T14:10:14.130Z,-18763.00
2023-05-06T14:15:14.855Z,-18766.00
2023-05-06T14:20:15.673Z,-18766.00
2023-05-06T14:25:16.434Z,-18763.00
2023-05-06T14:30:17.874Z,-18767.00
2023-05-06T14:35:21.622Z,-18774.00
2023-05-06T14:40:22.627Z,-18775.00
2023-05-06T14:45:23.474Z,-18779.00
2023-05-06T14:50:24.319Z,-18788.00
2023-05-06T14:55:25.206Z,-18792.00
2023-05-06T15:00:26.313Z,-18798.00
2023-05-06T15:05:27.118Z,-18801.00
2023-05-06T15:10:27.992Z,-18808.00
2023-05-06T15:15:28.902Z,-18813.00
2023-05-06T15:20:30.136Z,-18816.00
2023-05-06T15:25:35.819Z,-18822.00
2023-05-06T15:30:38.558Z,-18823.00
2023-05-06T15:35:39.916Z,-18824.00
2023-05-06T15:40:41.751Z,-18825.00
2023-05-06T15:45:42.537Z,-18819.00
2023-05-06T15:50:43.372Z,-18810.00
2023-05-06T15:55:46.969Z,-18803.00
2023-05-06T16:00:55.522Z,-18802.00
2023-05-06T16:05:57.645Z,-18805.00
2023-05-06T16:10:58.938Z,-18807.00
2023-05-06T16:16:01.348Z,-18806.00
2023-05-06T16:21:03.642Z,-18806.00
2023-05-06T16:26:05.986Z,-18806.00
2023-05-06T16:31:07.754Z,-18809.00
2023-05-06T16:36:08.831Z,-18802.00
2023-05-06T16:41:09.585Z,-18793.00
2023-05-06T16:46:10.492Z,-18797.00
2023-05-06T16:51:13.614Z,-18798.00
2023-05-06T16:56:14.373Z,-18800.00
2023-05-06T17:01:15.314Z,-18800.00
2023-05-06T17:06:16.078Z,-18802.00
2023-05-06T17:11:16.924Z,-18802.00
2023-05-06T17:16:18.106Z,-18799.00
2023-05-06T17:21:19.931Z,-18801.00
2023-05-06T17:26:21.574Z,-18805.00
2023-05-06T17:31:22.711Z,-18806.00
2023-05-06T17:36:23.616Z,-18805.00
2023-05-06T17:41:25.081Z,-18804.00
2023-05-06T17:46:26.372Z,-18801.00
2023-05-06T17:51:27.190Z,-18805.00
2023-05-06T17:56:28.005Z,-18800.00
2023-05-06T18:01:29.016Z,-18792.00
2023-05-06T18:06:30.297Z,-18784.00
2023-05-06T18:11:31.139Z,-18782.00
2023-05-06T18:16:35.028Z,-18778.00
2023-05-06T18:21:35.957Z,-18774.00
2023-05-06T18:26:44.689Z,-18774.00
2023-05-06T18:31:46.981Z,-18769.00
2023-05-06T18:36:47.784Z,-18767.00
2023-05-06T18:41:48.621Z,-18763.00
2023-05-06T18:46:49.443Z,-18764.00
2023-05-06T18:51:50.235Z,-18760.00
2023-05-06T18:56:51.310Z,-18758.00
2023-05-06T19:01:52.393Z,-18763.00
2023-05-06T19:06:53.158Z,-18755.00
2023-05-06T19:11:54.649Z,-18752.00
2023-05-06T19:16:55.479Z,-18749.00
2023-05-06T19:21:56.709Z,-18750.00
2023-05-06T19:26:57.521Z,-18748.00
2023-05-06T19:31:59.522Z,-18746.00
2023-05-06T19:37:00.424Z,-18743.00
2023-05-06T19:42:01.206Z,-18742.00
2023-05-06T19:47:01.991Z,-18744.00
2023-05-06T19:52:02.979Z,-18743.00
2023-05-06T19:57:03.930Z,-18744.00
2023-05-06T20:02:05.503Z,-18742.00
2023-05-06T20:07:06.406Z,-18742.00
2023-05-06T20:12:07.305Z,-18745.00
2023-05-06T20:17:08.193Z,-18741.00
2023-05-06T20:22:08.966Z,-18736.00
2023-05-06T20:27:09.928Z,-18735.00
2023-05-06T20:32:11.293Z,-18730.00
2023-05-06T20:37:12.237Z,-18725.00
2023-05-06T20:42:13.013Z,-18723.00
2023-05-06T20:47:13.762Z,-18711.00
2023-05-06T20:52:14.795Z,-18707.00
2023-05-06T20:57:16.359Z,-18708.00
2023-05-06T21:02:17.262Z,-18705.00
2023-05-06T21:07:18.098Z,-18706.00
2023-05-06T21:12:18.869Z,-18704.00
2023-05-06T21:17:19.664Z,-18705.00
2023-05-06T21:22:23.882Z,-18702.00
2023-05-06T21:27:24.761Z,-18700.00
2023-05-06T21:32:25.792Z,-18699.00
2023-05-06T21:37:26.595Z,-18699.00
2023-05-06T21:42:27.378Z,-18696.00
2023-05-06T21:47:28.189Z,-18695.00
2023-05-06T21:52:30.113Z,-18694.00
2023-05-06T21:57:31.869Z,-18692.00
2023-05-06T22:02:32.858Z,-18693.00
2023-05-06T22:07:33.757Z,-18694.00
2023-05-06T22:12:35.619Z,-18692.00
2023-05-06T22:17:37.005Z,-18691.00
2023-05-06T22:22:37.858Z,-18694.00
2023-05-06T22:27:38.633Z,-18693.00
2023-05-06T22:32:39.562Z,-18693.00
2023-05-06T22:37:42.726Z,-18692.00
2023-05-06T22:42:43.510Z,-18692.00
2023-05-06T22:47:44.336Z,-18691.00
2023-05-06T22:52:45.187Z,-18689.00
2023-05-06T22:57:49.062Z,-18686.00
2023-05-06T23:02:50.135Z,-18682.00
2023-05-06T23:07:50.973Z,-18682.00
2023-05-06T23:12:51.908Z,-18679.00
2023-05-06T23:17:52.780Z,-18671.00
2023-05-06T23:22:53.999Z,-18666.00
2023-05-06T23:27:54.867Z,-18666.00
2023-05-06T23:32:55.761Z,-18668.00
2023-05-06T23:37:56.888Z,-18663.00
2023-05-06T23:42:57.678Z,-18652.00
2023-05-06T23:47:58.523Z,-18646.00
2023-05-06T23:52:59.683Z,-18649.00
2023-05-06T23:58:03.765Z,-18651.00
